Time,TemperatureF,DewpointF,PressureIn,WindDirection,WindDirectionDegrees,WindSpeedMPH,WindSpeedGustMPH,Humidity,HourlyPrecipIn,Conditions,Clouds,dailyrainin,SolarRadiationWatts/m^2,SoftwareType,DateUTC
2013-02-22 00:00:00,22.5,17.0,30.31,ESE,106,6.0,9.0,79,0.00,OVC,,0.00,0.0,WeatherDisplay:10.37,2013-02-22 05:00:00,
2013-02-22 00:05:00,22.5,17.0,30.29,ESE,103,5.0,5.0,79,0.00,OVC,,0.00,0.0,WeatherDisplay:10.37,2013-02-22 05:05:00,
2013-02-22 00:10:00,22.5,17.0,30.29,East,85,6.1,8.1,79,0.00,OVC,,0.00,0.0,WeatherDisplay:10.37,2013-02-22 05:10:00,
2013-02-22 00:15:00,22.5,17.0,30.29,East,86,3.3,4.6,79,0.00,OVC,,0.00,0.0,WeatherDisplay:10.37,2013-02-22 05:15:00,
2013-02-22 00:20:00,22.7,17.2,30.27,East,96,4.0,5.8,79,0.00,OVC,,0.00,0.0,WeatherDisplay:10.37,2013-02-22 05:20:00,
2013-02-22 00:25:00,22.7,17.2,30.27,East,93,4.2,4.6,79,0.00,OVC,,0.00,0.0,WeatherDisplay:10.37,2013-02-22 05:25:00,
2013-02-22 00:30:00,22.7,16.9,30.27,East,79,3.1,4.6,78,0.00,OVC,,0.00,0.0,WeatherDisplay:10.37,2013-02-22 05:30:00,
2013-02-22 00:35:00,22.7,16.9,30.27,East,90,5.2,8.1,78,0.00,OVC,,0.00,0.0,WeatherDisplay:10.37,2013-02-22 05:35:00,
2013-02-22 00:40:00,22.7,16.9,30.27,ESE,110,5.1,5.1,78,0.00,OVC,,0.00,0.0,WeatherDisplay:10.37,2013-02-22 05:40:00,
2013-02-22 00:45:00,22.7,16.9,30.27,East,79,4.5,8.1,78,0.00,OVC,,0.00,0.0,WeatherDisplay:10.37,2013-02-22 05:45:00,
2013-02-22 00:50:00,22.9,17.4,30.26,East,89,7.9,8.1,79,0.00,OVC,,0.00,0.0,WeatherDisplay:10.37,2013-02-22 05:50:00,
2013-02-22 00:55:00,22.9,17.4,30.26,East,85,5.7,9.2,79,0.00,OVC,,0.00,0.0,WeatherDisplay:10.37,2013-02-22 05:55:00,
2013-02-22 01:00:00,23.0,17.5,30.26,ESE,112,9.9,9.9,79,0.00,OVC,,0.00,0.0,WeatherDisplay:10.37,2013-02-22 06:00:00,
2013-02-22 01:05:00,23.0,17.5,30.27,East,90,6.0,6.0,79,0.00,BKN,,0.00,0.0,WeatherDisplay:10.37,2013-02-22 06:05:00,
2013-02-22 01:10:00,23.0,17.5,30.27,East,93,4.4,8.1,79,0.00,BKN,,0.00,0.0,WeatherDisplay:10.37,2013-02-22 06:10:00,
2013-02-22 01:15:00,23.0,17.5,30.27,East,96,6.7,9.2,79,0.00,BKN,,0.00,0.0,WeatherDisplay:10.37,2013-02-22 06:15:00,
2013-02-22 01:20:00,23.0,17.5,30.27,East,83,5.2,8.1,79,0.00,BKN,,0.00,0.0,WeatherDisplay:10.37,2013-02-22 06:20:00,
2013-02-22 01:25:00,23.0,17.5,30.27,East,90,7.8,10.4,79,0.00,BKN,,0.00,0.0,WeatherDisplay:10.37,2013-02-22 06:25:00,
2013-02-22 01:30:00,23.0,17.5,30.27,East,85,6.8,9.2,79,0.00,BKN,,0.00,0.0,WeatherDisplay:10.37,2013-02-22 06:30:00,
2013-02-22 01:35:00,23.0,17.5,30.27,East,97,7.1,11.5,79,0.00,BKN,,0.00,0.0,WeatherDisplay:10.37,2013-02-22 06:35:00,
2013-02-22 01:40:00,23.0,17.7,30.27,East,90,5.4,5.4,80,0.00,BKN,,0.00,0.0,WeatherDisplay:10.37,2013-02-22 06:40:00,
2013-02-22 01:45:00,23.0,17.7,30.27,ENE,69,4.2,4.6,80,0.00,BKN,,0.00,0.0,WeatherDisplay:10.37,2013-02-22 06:45:00,
2013-02-22 01:50:00,23.0,17.7,30.27,East,86,11.6,11.6,80,0.00,BKN,,0.00,0.0,WeatherDisplay:10.37,2013-02-22 06:50:00,
2013-02-22 01:55:00,23.0,17.7,30.27,East,86,7.3,9.2,80,0.00,BKN,,0.00,0.0,WeatherDisplay:10.37,2013-02-22 06:55:00,
2013-02-22 02:00:00,23.0,17.7,30.27,East,90,5.1,7.5,80,0.00,BKN,,0.00,0.0,WeatherDisplay:10.37,2013-02-22 07:00:00,
2013-02-22 02:05:00,23.0,17.7,30.26,East,90,2.1,4.5,80,0.00,OVC,,0.00,0.0,WeatherDisplay:10.37,2013-02-22 07:05:00,
2013-02-22 02:10:00,23.0,17.7,30.26,ESE,112,7.5,11.5,80,0.00,OVC,,0.00,0.0,WeatherDisplay:10.37,2013-02-22 07:10:00,
2013-02-22 02:15:00,23.0,17.7,30.26,ENE,65,5.2,5.2,80,0.00,OVC,,0.00,0.0,WeatherDisplay:10.37,2013-02-22 07:15:00,
2013-02-22 02:20:00,23.0,17.7,30.25,ESE,106,9.5,10.5,80,0.00,OVC,,0.00,0.0,WeatherDisplay:10.37,2013-02-22 07:20:00,
2013-02-22 02:25:00,23.2,17.9,30.25,East,79,7.5,8.1,80,0.00,OVC,,0.00,0.0,WeatherDisplay:10.37,2013-02-22 07:25:00,
2013-02-22 02:30:00,23.0,17.7,30.25,ENE,64,6.6,6.6,80,0.00,OVC,,0.00,0.0,WeatherDisplay:10.37,2013-02-22 07:30:00,
2013-02-22 02:35:00,23.0,17.7,30.24,East,80,5.9,9.2,80,0.00,OVC,,0.00,0.0,WeatherDisplay:10.37,2013-02-22 07:35:00,
2013-02-22 02:40:00,23.0,17.7,30.24,East,100,5.9,6.0,80,0.00,OVC,,0.00,0.0,WeatherDisplay:10.37,2013-02-22 07:40:00,
2013-02-22 02:45:00,23.0,17.7,30.24,East,83,6.1,7.5,80,0.00,OVC,,0.00,0.0,WeatherDisplay:10.37,2013-02-22 07:45:00,
2013-02-22 02:50:00,23.0,17.7,30.24,East,86,9.0,9.2,80,0.00,OVC,,0.00,0.0,WeatherDisplay:10.37,2013-02-22 07:50:00,
2013-02-22 02:55:00,23.0,17.7,30.24,ENE,76,5.0,5.0,80,0.00,OVC,,0.00,0.0,WeatherDisplay:10.37,2013-02-22 07:55:00,
2013-02-22 03:00:00,23.0,17.7,30.24,East,86,10.2,10.4,80,0.00,OVC,,0.00,0.0,WeatherDisplay:10.37,2013-02-22 08:00:00,
2013-02-22 03:05:00,23.0,17.7,30.22,East,100,8.9,10.4,80,0.00,OVC,,0.00,0.0,WeatherDisplay:10.37,2013-02-22 08:05:00,
2013-02-22 03:10:00,23.0,17.7,30.22,East,88,7.4,9.2,80,0.00,OVC,,0.00,0.0,WeatherDisplay:10.37,2013-02-22 08:10:00,
2013-02-22 03:15:00,23.0,17.7,30.22,East,89,5.7,9.2,80,0.00,OVC,,0.00,0.0,WeatherDisplay:10.37,2013-02-22 08:15:00,
2013-02-22 03:20:00,23.0,18.0,30.20,East,83,4.1,8.1,81,0.00,OVC,,0.00,0.0,WeatherDisplay:10.37,2013-02-22 08:20:00,
2013-02-22 03:25:00,23.0,18.0,30.20,ENE,76,8.4,10.4,81,0.00,OVC,,0.00,0.0,WeatherDisplay:10.37,2013-02-22 08:25:00,
2013-02-22 03:30:00,23.0,18.0,30.20,ENE,69,4.0,4.6,81,0.00,OVC,,0.00,0.0,WeatherDisplay:10.37,2013-02-22 08:30:00,
2013-02-22 03:35:00,22.9,17.9,30.18,ENE,68,7.4,8.1,81,0.00,OVC,,0.00,0.0,WeatherDisplay:10.37,2013-02-22 08:35:00,
2013-02-22 03:40:00,23.0,18.0,30.18,East,79,5.3,7.5,81,0.00,OVC,,0.00,0.0,WeatherDisplay:10.37,2013-02-22 08:40:00,
2013-02-22 03:45:00,22.9,17.9,30.18,East,80,4.7,9.2,81,0.00,OVC,,0.00,0.0,WeatherDisplay:10.37,2013-02-22 08:45:00,
2013-02-22 03:50:00,23.0,18.0,30.17,ENE,75,3.2,5.8,81,0.00,OVC,,0.00,0.0,WeatherDisplay:10.37,2013-02-22 08:50:00,
2013-02-22 03:55:00,23.0,18.0,30.17,East,80,6.0,6.0,81,0.00,OVC,,0.00,0.0,WeatherDisplay:10.37,2013-02-22 08:55:00,
2013-02-22 04:00:00,23.0,18.0,30.17,ENE,75,7.2,10.5,81,0.00,OVC,,0.00,0.0,WeatherDisplay:10.37,2013-02-22 09:00:00,
2013-02-22 04:05:00,23.0,18.0,30.15,ENE,73,6.4,9.2,81,0.00,OVC,,0.00,0.0,WeatherDisplay:10.37,2013-02-22 09:05:00,
2013-02-22 04:10:00,23.0,18.0,30.15,East,80,10.5,13.8,81,0.00,OVC,,0.00,0.0,WeatherDisplay:10.37,2013-02-22 09:10:00,
2013-02-22 04:15:00,23.2,18.5,30.15,East,97,9.1,10.4,82,0.00,OVC,,0.00,0.0,WeatherDisplay:10.37,2013-02-22 09:15:00,
2013-02-22 04:20:00,23.2,18.5,30.13,East,79,3.1,4.5,82,0.00,OVC,,0.00,0.0,WeatherDisplay:10.37,2013-02-22 09:20:00,
2013-02-22 04:25:00,23.3,18.6,30.13,ESE,102,7.6,9.2,82,0.00,OVC,,0.00,0.0,WeatherDisplay:10.37,2013-02-22 09:25:00,
2013-02-22 04:30:00,23.5,18.5,30.13,East,96,5.4,11.5,81,0.00,OVC,,0.00,0.0,WeatherDisplay:10.37,2013-02-22 09:30:00,
2013-02-22 04:35:00,23.5,18.5,30.12,East,92,5.6,7.5,81,0.00,OVC,,0.00,0.0,WeatherDisplay:10.37,2013-02-22 09:35:00,
2013-02-22 04:40:00,23.6,18.3,30.12,ESE,107,10.0,10.4,80,0.00,OVC,,0.00,0.0,WeatherDisplay:10.37,2013-02-22 09:40:00,
2013-02-22 04:45:00,23.6,18.3,30.12,East,83,9.2,11.5,80,0.00,OVC,,0.00,0.0,WeatherDisplay:10.37,2013-02-22 09:45:00,
2013-02-22 04:50:00,23.6,18.3,30.11,East,82,11.3,16.1,80,0.00,OVC,,0.00,0.0,WeatherDisplay:10.37,2013-02-22 09:50:00,
2013-02-22 04:55:00,23.8,18.2,30.11,East,79,4.4,4.6,79,0.00,OVC,,0.00,0.0,WeatherDisplay:10.37,2013-02-22 09:55:00,
2013-02-22 05:00:00,23.8,18.2,30.11,East,79,4.8,4.8,79,0.00,OVC,,0.00,0.0,WeatherDisplay:10.37,2013-02-22 10:00:00,
2013-02-22 05:05:00,23.8,18.2,30.10,NW,311,4.6,7.5,79,0.00,OVC,,0.00,0.0,WeatherDisplay:10.37,2013-02-22 10:05:00,
2013-02-22 05:10:00,23.9,18.3,30.10,East,82,6.3,7.5,79,0.00,OVC,,0.00,0.0,WeatherDisplay:10.37,2013-02-22 10:10:00,
2013-02-22 05:15:00,23.9,18.3,30.10,East,95,4.2,4.6,79,0.00,OVC,,0.00,0.0,WeatherDisplay:10.37,2013-02-22 10:15:00,
2013-02-22 05:20:00,24.1,18.5,30.09,East,90,4.6,8.1,79,0.00,OVC,,0.00,0.0,WeatherDisplay:10.37,2013-02-22 10:20:00,
2013-02-22 05:25:00,24.1,18.2,30.09,ENE,69,4.9,4.9,78,0.00,OVC,,0.00,0.0,WeatherDisplay:10.37,2013-02-22 10:25:00,
2013-02-22 05:30:00,24.1,18.2,30.09,ESE,114,7.1,10.5,78,0.00,OVC,,0.00,0.0,WeatherDisplay:10.37,2013-02-22 10:30:00,
2013-02-22 05:35:00,24.2,18.0,30.11,East,95,12.2,12.2,77,0.00,OVC,,0.00,0.0,WeatherDisplay:10.37,2013-02-22 10:35:00,
2013-02-22 05:40:00,24.2,17.7,30.11,East,82,6.0,6.0,76,0.00,OVC,,0.00,0.0,WeatherDisplay:10.37,2013-02-22 10:40:00,
2013-02-22 05:45:00,24.2,17.7,30.11,ENE,64,10.2,11.5,76,0.00,OVC,,0.00,0.0,WeatherDisplay:10.37,2013-02-22 10:45:00,
2013-02-22 05:50:00,24.2,17.7,30.12,East,96,6.4,9.2,76,0.00,OVC,,0.00,0.0,WeatherDisplay:10.37,2013-02-22 10:50:00,
2013-02-22 05:55:00,24.2,17.7,30.12,ENE,76,3.4,4.5,76,0.00,OVC,,0.00,0.0,WeatherDisplay:10.37,2013-02-22 10:55:00,
2013-02-22 06:00:00,24.2,17.7,30.12,ENE,76,4.2,8.1,76,0.00,OVC,,0.00,0.0,WeatherDisplay:10.37,2013-02-22 11:00:00,
2013-02-22 06:05:00,24.2,18.0,30.10,ENE,68,8.0,8.1,77,0.00,OVC,,0.00,0.0,WeatherDisplay:10.37,2013-02-22 11:05:00,
2013-02-22 06:10:00,24.2,18.0,30.10,East,80,6.0,9.2,77,0.00,OVC,,0.00,0.0,WeatherDisplay:10.37,2013-02-22 11:10:00,
2013-02-22 06:15:00,24.2,18.0,30.10,ENE,71,4.3,8.1,77,0.00,OVC,,0.00,0.0,WeatherDisplay:10.37,2013-02-22 11:15:00,
2013-02-22 06:20:00,24.2,18.0,30.09,NE,55,4.8,6.0,77,0.00,OVC,,0.00,0.0,WeatherDisplay:10.37,2013-02-22 11:20:00,
2013-02-22 06:25:00,24.2,18.3,30.09,East,88,5.9,9.2,78,0.00,OVC,,0.00,0.0,WeatherDisplay:10.37,2013-02-22 11:25:00,
2013-02-22 06:30:00,24.2,18.3,30.09,East,88,12.1,12.1,78,0.00,OVC,,0.00,0.0,WeatherDisplay:10.37,2013-02-22 11:30:00,
2013-02-22 06:35:00,24.2,18.6,30.08,East,93,4.8,8.1,79,0.00,OVC,,0.00,0.0,WeatherDisplay:10.37,2013-02-22 11:35:00,
2013-02-22 06:40:00,24.2,18.9,30.08,East,83,8.7,8.7,80,0.00,OVC,,0.00,0.0,WeatherDisplay:10.37,2013-02-22 11:40:00,
2013-02-22 06:45:00,24.2,19.2,30.08,East,86,7.3,9.0,81,0.00,OVC,,0.00,0.0,WeatherDisplay:10.37,2013-02-22 11:45:00,
2013-02-22 06:50:00,23.9,19.2,30.07,East,82,15.5,15.5,82,0.00,OVC,,0.00,0.0,WeatherDisplay:10.37,2013-02-22 11:50:00,
2013-02-22 06:55:00,23.6,19.8,30.07,ENE,76,6.8,9.2,85,0.00,OVC,,0.00,0.0,WeatherDisplay:10.37,2013-02-22 11:55:00,
2013-02-22 07:00:00,23.5,20.2,30.07,East,88,7.5,8.1,87,0.00,OVC,,0.00,0.0,WeatherDisplay:10.37,2013-02-22 12:00:00,
2013-02-22 07:05:00,23.5,20.5,30.06,ENE,75,2.1,3.5,88,0.00,-SN,,0.00,0.0,WeatherDisplay:10.37,2013-02-22 12:05:00,
2013-02-22 07:10:00,23.5,20.7,30.06,ENE,66,2.5,4.6,89,0.00,-SN,,0.00,0.0,WeatherDisplay:10.37,2013-02-22 12:10:00,
2013-02-22 07:15:00,23.5,20.7,30.06,East,93,5.5,5.5,89,0.00,-SN,,0.00,0.0,WeatherDisplay:10.37,2013-02-22 12:15:00,
2013-02-22 07:20:00,23.6,21.1,30.06,NW,316,2.0,3.0,90,0.00,-SN,,0.00,0.0,WeatherDisplay:10.37,2013-02-22 12:20:00,
2013-02-22 07:26:00,23.6,21.4,30.06,East,86,3.0,4.6,91,0.00,-SN,,0.00,0.0,WeatherDisplay:10.37,2013-02-22 12:26:00,
2013-02-22 07:31:00,23.6,21.4,30.06,East,88,5.9,10.4,91,0.00,-SN,,0.00,0.0,WeatherDisplay:10.37,2013-02-22 12:31:00,
2013-02-22 07:36:00,23.6,21.4,30.05,East,83,5.8,8.1,91,0.00,-SN,,0.00,0.0,WeatherDisplay:10.37,2013-02-22 12:36:00,
2013-02-22 07:41:00,23.6,21.6,30.05,East,95,4.9,8.1,92,0.00,-SN,,0.00,5.0,WeatherDisplay:10.37,2013-02-22 12:41:00,
2013-02-22 07:46:00,23.6,21.6,30.05,East,85,12.1,12.1,92,0.00,-SN,,0.00,5.0,WeatherDisplay:10.37,2013-02-22 12:46:00,
2013-02-22 07:51:00,23.6,21.6,30.03,East,89,6.0,9.0,92,0.00,-SN,,0.00,7.0,WeatherDisplay:10.37,2013-02-22 12:51:00,
2013-02-22 07:56:00,23.6,21.6,30.03,East,83,3.3,4.6,92,0.00,-SN,,0.00,9.0,WeatherDisplay:10.37,2013-02-22 12:56:00,
2013-02-22 08:01:00,23.6,21.6,30.03,ENE,69,4.8,5.8,92,0.00,-SN,,0.00,9.0,WeatherDisplay:10.37,2013-02-22 13:01:00,
2013-02-22 08:06:00,23.6,21.6,30.03,East,88,6.0,9.2,92,0.00,-SN,,0.00,12.0,WeatherDisplay:10.37,2013-02-22 13:06:00,
2013-02-22 08:11:00,23.6,21.6,30.03,East,79,5.3,5.3,92,0.00,-SN,,0.00,12.0,WeatherDisplay:10.37,2013-02-22 13:11:00,
2013-02-22 08:16:00,23.6,21.6,30.03,East,95,6.0,11.5,92,0.00,-SN,,0.00,12.0,WeatherDisplay:10.37,2013-02-22 13:16:00,
2013-02-22 08:21:00,23.6,21.6,30.03,East,88,5.8,5.8,92,0.00,-SN,,0.00,9.0,WeatherDisplay:10.37,2013-02-22 13:21:00,
2013-02-22 08:26:00,23.6,21.6,30.03,East,88,8.2,10.4,92,0.00,-SN,,0.00,11.0,WeatherDisplay:10.37,2013-02-22 13:26:00,
2013-02-22 08:31:00,23.6,21.9,30.03,ESE,107,4.7,4.7,93,0.00,-SN,,0.00,12.0,WeatherDisplay:10.37,2013-02-22 13:31:00,
2013-02-22 08:36:00,23.8,22.1,30.03,East,99,4.8,8.1,93,0.00,-SN,,0.00,21.0,WeatherDisplay:10.37,2013-02-22 13:36:00,
2013-02-22 08:41:00,23.8,22.1,30.03,ENE,71,3.6,3.6,93,0.00,-SN,,0.00,16.0,WeatherDisplay:10.37,2013-02-22 13:41:00,
2013-02-22 08:46:00,23.8,22.1,30.03,East,89,2.1,8.1,93,0.00,-SN,,0.00,16.0,WeatherDisplay:10.37,2013-02-22 13:46:00,
2013-02-22 08:51:00,23.9,22.2,30.02,East,85,4.9,4.9,93,0.00,-SN,,0.00,9.0,WeatherDisplay:10.37,2013-02-22 13:51:00,
2013-02-22 08:56:00,23.9,22.2,30.02,East,80,6.7,8.1,93,0.00,-SN,,0.00,14.0,WeatherDisplay:10.37,2013-02-22 13:56:00,
2013-02-22 09:01:00,24.1,22.4,30.02,East,100,1.3,8.1,93,0.00,-SN,,0.00,14.0,WeatherDisplay:10.37,2013-02-22 14:01:00,
2013-02-22 09:06:00,24.1,22.4,30.02,ENE,68,2.6,3.5,93,0.00,OVC,,0.00,18.0,WeatherDisplay:10.37,2013-02-22 14:06:00,
2013-02-22 09:11:00,24.1,22.4,30.02,East,90,2.8,4.6,93,0.00,OVC,,0.00,16.0,WeatherDisplay:10.37,2013-02-22 14:11:00,
2013-02-22 09:16:00,24.2,22.5,30.02,East,90,6.6,6.6,93,0.00,OVC,,0.00,25.0,WeatherDisplay:10.37,2013-02-22 14:16:00,
2013-02-22 09:21:00,24.2,22.7,30.02,East,95,1.9,9.2,94,0.00,OVC,,0.00,21.0,WeatherDisplay:10.37,2013-02-22 14:21:00,
2013-02-22 09:26:00,24.4,22.9,30.02,East,86,1.0,5.8,94,0.00,OVC,,0.00,32.0,WeatherDisplay:10.37,2013-02-22 14:26:00,
2013-02-22 09:31:00,24.5,23.0,30.02,East,85,2.3,3.5,94,0.00,OVC,,0.00,28.0,WeatherDisplay:10.37,2013-02-22 14:31:00,
2013-02-22 09:36:00,24.7,23.2,30.02,East,100,1.6,4.6,94,0.00,OVC,,0.00,39.0,WeatherDisplay:10.37,2013-02-22 14:36:00,
2013-02-22 09:41:00,24.7,23.2,30.02,ENE,71,2.8,4.6,94,0.00,OVC,,0.00,49.0,WeatherDisplay:10.37,2013-02-22 14:41:00,
2013-02-22 09:46:00,24.8,23.3,30.02,East,92,3.8,9.2,94,0.00,OVC,,0.00,58.0,WeatherDisplay:10.37,2013-02-22 14:46:00,
2013-02-22 09:51:00,25.0,23.5,30.01,ENE,72,3.3,4.6,94,0.00,OVC,,0.00,67.0,WeatherDisplay:10.37,2013-02-22 14:51:00,
2013-02-22 09:56:00,25.1,23.6,30.01,East,95,9.1,12.0,94,0.00,OVC,,0.00,67.0,WeatherDisplay:10.37,2013-02-22 14:56:00,
2013-02-22 10:01:00,25.3,23.8,30.01,ESE,107,5.3,5.3,94,0.00,OVC,,0.00,77.0,WeatherDisplay:10.37,2013-02-22 15:01:00,
2013-02-22 10:06:00,25.4,23.9,30.01,East,89,2.5,4.5,94,0.00,-SN,,0.00,67.0,WeatherDisplay:10.37,2013-02-22 15:06:00,
2013-02-22 10:11:00,25.7,24.2,30.01,ESE,109,4.1,9.2,94,0.00,-SN,,0.00,74.0,WeatherDisplay:10.37,2013-02-22 15:11:00,
2013-02-22 10:16:00,25.7,24.2,30.01,East,96,2.6,8.1,94,0.00,-SN,,0.00,86.0,WeatherDisplay:10.37,2013-02-22 15:16:00,
2013-02-22 10:21:00,25.8,24.3,30.00,East,99,3.4,9.2,94,0.00,-SN,,0.00,79.0,WeatherDisplay:10.37,2013-02-22 15:21:00,
2013-02-22 10:26:00,26.0,24.5,30.00,East,92,6.2,6.2,94,0.00,-SN,,0.00,107.0,WeatherDisplay:10.37,2013-02-22 15:26:00,
2013-02-22 10:31:00,26.1,24.6,30.00,East,88,3.7,9.2,94,0.00,-SN,,0.00,81.0,WeatherDisplay:10.37,2013-02-22 15:31:00,
2013-02-22 10:36:00,26.1,24.6,29.98,East,89,4.6,4.6,94,0.00,-SN,,0.00,74.0,WeatherDisplay:10.37,2013-02-22 15:36:00,
2013-02-22 10:41:00,26.3,24.8,29.98,ENE,72,4.8,4.8,94,0.00,-SN,,0.00,91.0,WeatherDisplay:10.37,2013-02-22 15:41:00,
2013-02-22 10:46:00,26.4,24.9,29.98,East,86,3.7,4.6,94,0.00,-SN,,0.00,77.0,WeatherDisplay:10.37,2013-02-22 15:46:00,
2013-02-22 10:51:00,26.6,25.1,29.97,ENE,73,6.2,8.1,94,0.00,-SN,,0.00,77.0,WeatherDisplay:10.37,2013-02-22 15:51:00,
2013-02-22 10:56:00,26.6,24.8,29.97,East,89,6.6,9.2,93,0.00,-SN,,0.00,74.0,WeatherDisplay:10.37,2013-02-22 15:56:00,
2013-02-22 11:01:00,26.7,24.9,29.97,East,99,7.7,8.1,93,0.00,-SN,,0.00,67.0,WeatherDisplay:10.37,2013-02-22 16:01:00,
2013-02-22 11:06:00,26.7,24.9,29.96,East,93,8.1,9.2,93,0.00,-SN,,0.00,63.0,WeatherDisplay:10.37,2013-02-22 16:06:00,
2013-02-22 11:11:00,26.9,25.1,29.96,East,88,7.0,9.2,93,0.00,-SN,,0.00,62.0,WeatherDisplay:10.37,2013-02-22 16:11:00,
2013-02-22 11:16:00,26.9,25.1,29.96,East,100,7.2,10.4,93,0.00,-SN,,0.00,65.0,WeatherDisplay:10.37,2013-02-22 16:16:00,
2013-02-22 11:21:00,26.9,25.1,29.96,ESE,116,9.9,9.9,93,0.00,-SN,,0.00,56.0,WeatherDisplay:10.37,2013-02-22 16:21:00,
2013-02-22 11:26:00,27.0,25.2,29.96,East,82,4.4,4.6,93,0.00,-SN,,0.00,63.0,WeatherDisplay:10.37,2013-02-22 16:26:00,
2013-02-22 11:31:00,27.0,25.2,29.96,East,82,6.8,6.8,93,0.00,-SN,,0.00,63.0,WeatherDisplay:10.37,2013-02-22 16:31:00,
2013-02-22 11:36:00,27.3,25.5,29.96,East,100,5.2,8.1,93,0.00,-SN,,0.00,60.0,WeatherDisplay:10.37,2013-02-22 16:36:00,
2013-02-22 11:41:00,27.5,25.7,29.96,East,96,3.7,4.6,93,0.00,-SN,,0.00,62.0,WeatherDisplay:10.37,2013-02-22 16:41:00,
2013-02-22 11:46:00,27.5,25.7,29.96,East,97,10.3,10.3,93,0.00,-SN,,0.00,65.0,WeatherDisplay:10.37,2013-02-22 16:46:00,
2013-02-22 11:51:00,27.6,25.8,29.96,ESE,104,9.6,10.4,93,0.00,-SN,,0.00,72.0,WeatherDisplay:10.37,2013-02-22 16:51:00,
2013-02-22 11:56:00,27.8,26.0,29.96,East,96,3.9,8.1,93,0.00,-SN,,0.00,76.0,WeatherDisplay:10.37,2013-02-22 16:56:00,
2013-02-22 12:01:00,27.9,26.1,29.96,East,99,4.6,4.6,93,0.00,-SN,,0.00,76.0,WeatherDisplay:10.37,2013-02-22 17:01:00,
2013-02-22 12:06:00,28.1,26.3,29.95,ESE,106,5.5,5.5,93,0.00,OVC,,0.00,76.0,WeatherDisplay:10.37,2013-02-22 17:06:00,
2013-02-22 12:11:00,28.2,26.2,29.95,East,99,3.3,4.6,92,0.00,OVC,,0.00,81.0,WeatherDisplay:10.37,2013-02-22 17:11:00,
2013-02-22 12:16:00,28.4,26.4,29.95,ESE,104,4.5,9.2,92,0.00,OVC,,0.00,81.0,WeatherDisplay:10.37,2013-02-22 17:16:00,
2013-02-22 12:21:00,28.5,26.5,29.95,East,83,3.9,4.6,92,0.00,OVC,,0.00,79.0,WeatherDisplay:10.37,2013-02-22 17:21:00,
2013-02-22 12:26:00,28.7,26.7,29.95,East,85,3.9,4.5,92,0.00,OVC,,0.00,76.0,WeatherDisplay:10.37,2013-02-22 17:26:00,
2013-02-22 12:31:00,28.8,27.0,29.95,East,79,2.7,3.5,93,0.00,OVC,,0.00,74.0,WeatherDisplay:10.37,2013-02-22 17:31:00,
2013-02-22 12:36:00,29.0,27.2,29.94,ENE,75,3.3,3.5,93,0.00,OVC,,0.00,77.0,WeatherDisplay:10.37,2013-02-22 17:36:00,
2013-02-22 12:41:00,29.1,27.3,29.94,ESE,109,2.8,3.5,93,0.00,OVC,,0.00,76.0,WeatherDisplay:10.37,2013-02-22 17:41:00,
2013-02-22 12:46:00,29.3,27.5,29.94,ESE,107,6.1,9.2,93,0.00,OVC,,0.00,76.0,WeatherDisplay:10.37,2013-02-22 17:46:00,
2013-02-22 12:51:00,29.3,27.5,29.94,ESE,109,8.6,9.2,93,0.00,OVC,,0.00,74.0,WeatherDisplay:10.37,2013-02-22 17:51:00,
2013-02-22 12:56:00,29.4,27.6,29.94,ESE,107,4.6,8.1,93,0.00,OVC,,0.00,77.0,WeatherDisplay:10.37,2013-02-22 17:56:00,
2013-02-22 13:01:00,29.7,27.9,29.94,ESE,109,3.9,4.5,93,0.00,OVC,,0.00,70.0,WeatherDisplay:10.37,2013-02-22 18:01:00,
2013-02-22 13:06:00,29.8,28.3,29.93,ESE,110,3.0,4.6,94,0.00,-SN,,0.00,72.0,WeatherDisplay:10.37,2013-02-22 18:06:00,
2013-02-22 13:11:00,30.0,28.5,29.93,ESE,110,3.1,4.6,94,0.00,-SN,,0.00,76.0,WeatherDisplay:10.37,2013-02-22 18:11:00,
2013-02-22 13:16:00,30.1,28.6,29.93,East,99,3.8,3.8,94,0.00,-SN,,0.00,72.0,WeatherDisplay:10.37,2013-02-22 18:16:00,
2013-02-22 13:21:00,30.1,28.6,29.93,ESE,103,4.8,4.8,94,0.00,-SN,,0.00,70.0,WeatherDisplay:10.37,2013-02-22 18:21:00,
2013-02-22 13:26:00,30.3,28.8,29.93,ESE,104,3.0,4.6,94,0.00,-SN,,0.00,79.0,WeatherDisplay:10.37,2013-02-22 18:26:00,
2013-02-22 13:31:00,30.4,28.9,29.93,ESE,104,3.9,4.6,94,0.00,-SN,,0.00,81.0,WeatherDisplay:10.37,2013-02-22 18:31:00,
2013-02-22 13:36:00,30.6,29.3,29.92,East,96,3.8,5.8,95,0.00,-SN,,0.00,69.0,WeatherDisplay:10.37,2013-02-22 18:36:00,
2013-02-22 13:41:00,30.7,29.4,29.92,East,100,3.5,3.5,95,0.00,-SN,,0.00,72.0,WeatherDisplay:10.37,2013-02-22 18:41:00,
2013-02-22 13:46:00,30.9,29.6,29.92,ENE,78,6.4,8.1,95,0.00,-SN,,0.00,72.0,WeatherDisplay:10.37,2013-02-22 18:46:00,
2013-02-22 13:51:00,31.0,29.7,29.91,ESE,112,8.7,9.0,95,0.00,-SN,,0.00,65.0,WeatherDisplay:10.37,2013-02-22 18:51:00,
2013-02-22 13:56:00,31.2,29.9,29.91,ESE,104,5.9,8.1,95,0.00,-SN,,0.00,69.0,WeatherDisplay:10.37,2013-02-22 18:56:00,
2013-02-22 14:01:00,31.2,29.9,29.91,East,96,4.7,4.7,95,0.00,-SN,,0.00,70.0,WeatherDisplay:10.37,2013-02-22 19:01:00,
2013-02-22 14:06:00,31.3,30.3,29.91,East,97,3.7,3.7,96,0.00,-SN,,0.00,65.0,WeatherDisplay:10.37,2013-02-22 19:06:00,
2013-02-22 14:11:00,31.5,30.5,29.91,SE,128,4.7,5.8,96,0.00,-SN,,0.00,63.0,WeatherDisplay:10.37,2013-02-22 19:11:00,
2013-02-22 14:16:00,31.5,30.5,29.91,SE,126,3.7,4.6,96,0.00,-SN,,0.00,56.0,WeatherDisplay:10.37,2013-02-22 19:16:00,
2013-02-22 14:21:00,31.6,30.6,29.92,SE,124,5.2,8.1,96,0.00,-SN,,0.00,58.0,WeatherDisplay:10.37,2013-02-22 19:21:00,
2013-02-22 14:26:00,31.8,30.8,29.92,SE,127,2.7,4.6,96,0.00,-SN,,0.00,69.0,WeatherDisplay:10.37,2013-02-22 19:26:00,
2013-02-22 14:31:00,31.9,30.9,29.92,SE,127,3.4,3.5,96,0.00,-SN,,0.00,70.0,WeatherDisplay:10.37,2013-02-22 19:31:00,
2013-02-22 14:36:00,32.1,31.1,29.91,SE,124,2.6,2.6,96,0.00,-SN,,0.00,62.0,WeatherDisplay:10.37,2013-02-22 19:36:00,
2013-02-22 14:41:00,32.2,31.2,29.91,ESE,123,3.1,4.6,96,0.00,-SN,,0.00,67.0,WeatherDisplay:10.37,2013-02-22 19:41:00,
2013-02-22 14:46:00,32.4,31.4,29.91,ESE,123,0.8,3.5,96,0.00,-SN,,0.00,65.0,WeatherDisplay:10.37,2013-02-22 19:46:00,
2013-02-22 14:51:00,32.5,31.5,29.91,ESE,123,2.5,3.5,96,0.00,-SN,,0.00,76.0,WeatherDisplay:10.37,2013-02-22 19:51:00,
2013-02-22 14:56:00,32.8,31.8,29.91,ESE,123,3.3,3.3,96,0.00,-SN,,0.00,76.0,WeatherDisplay:10.37,2013-02-22 19:56:00,
2013-02-22 15:01:00,33.1,32.1,29.91,ESE,123,0.2,1.1,96,0.00,-SN,,0.00,76.0,WeatherDisplay:10.37,2013-02-22 20:01:00,
2013-02-22 15:06:00,33.2,32.2,29.90,ESE,123,4.2,4.5,96,0.00,-SN,,0.00,77.0,WeatherDisplay:10.37,2013-02-22 20:06:00,
2013-02-22 15:11:00,33.4,32.4,29.90,ESE,123,0.4,1.1,96,0.00,-SN,,0.00,74.0,WeatherDisplay:10.37,2013-02-22 20:11:00,
2013-02-22 15:16:00,33.5,32.7,29.90,ESE,123,0.1,1.1,97,0.00,-SN,,0.00,72.0,WeatherDisplay:10.37,2013-02-22 20:16:00,
2013-02-22 15:21:00,33.7,32.9,29.90,ESE,123,0.2,1.5,97,0.00,-SN,,0.00,72.0,WeatherDisplay:10.37,2013-02-22 20:21:00,
2013-02-22 15:26:00,33.8,33.0,29.90,ESE,123,0.0,0.0,97,0.00,-SN,,0.00,74.0,WeatherDisplay:10.37,2013-02-22 20:26:00,
2013-02-22 15:31:00,34.1,33.3,29.90,ESE,123,0.2,1.5,97,0.00,-SN,,0.00,72.0,WeatherDisplay:10.37,2013-02-22 20:31:00,
2013-02-22 15:36:00,34.1,33.3,29.90,ESE,123,0.2,1.5,97,0.00,-SN,,0.00,70.0,WeatherDisplay:10.37,2013-02-22 20:36:00,
2013-02-22 15:41:00,34.3,33.5,29.90,ESE,123,0.0,0.0,97,0.00,-SN,,0.00,62.0,WeatherDisplay:10.37,2013-02-22 20:41:00,
2013-02-22 15:46:00,34.4,33.6,29.90,ESE,123,0.4,1.5,97,0.00,-SN,,0.00,60.0,WeatherDisplay:10.37,2013-02-22 20:46:00,
2013-02-22 15:51:00,34.6,33.8,29.90,ESE,123,0.0,1.1,97,0.00,-SN,,0.00,58.0,WeatherDisplay:10.37,2013-02-22 20:51:00,
2013-02-22 15:56:00,34.7,33.9,29.90,ESE,123,1.1,3.0,97,0.00,-SN,,0.00,65.0,WeatherDisplay:10.37,2013-02-22 20:56:00,
2013-02-22 16:01:00,34.7,33.9,29.90,ESE,123,0.0,0.0,97,0.00,-SN,,0.00,55.0,WeatherDisplay:10.37,2013-02-22 21:01:00,
2013-02-22 16:06:00,34.9,34.1,29.90,ESE,123,0.0,1.1,97,0.00,-SN,,0.00,51.0,WeatherDisplay:10.37,2013-02-22 21:06:00,
2013-02-22 16:11:00,35.0,34.2,29.90,ESE,123,0.0,0.0,97,0.00,-SN,,0.00,49.0,WeatherDisplay:10.37,2013-02-22 21:11:00,
2013-02-22 16:16:00,35.0,34.2,29.90,ESE,123,0.3,1.5,97,0.00,-SN,,0.00,49.0,WeatherDisplay:10.37,2013-02-22 21:16:00,
2013-02-22 16:21:00,35.2,34.4,29.90,ESE,123,0.0,0.0,97,0.00,-SN,,0.00,39.0,WeatherDisplay:10.37,2013-02-22 21:21:00,
2013-02-22 16:26:00,35.2,34.4,29.90,ESE,123,0.0,0.0,97,0.00,-SN,,0.00,37.0,WeatherDisplay:10.37,2013-02-22 21:26:00,
2013-02-22 16:31:00,35.2,34.4,29.90,ESE,123,0.0,0.0,97,0.00,-SN,,0.00,30.0,WeatherDisplay:10.37,2013-02-22 21:31:00,
2013-02-22 16:36:00,35.3,34.5,29.90,ESE,123,0.4,1.5,97,0.00,-SN,,0.00,26.0,WeatherDisplay:10.37,2013-02-22 21:36:00,
2013-02-22 16:41:00,35.3,34.5,29.90,ESE,123,0.0,1.1,97,0.00,-SN,,0.00,28.0,WeatherDisplay:10.37,2013-02-22 21:41:00,
2013-02-22 16:46:00,35.3,34.5,29.90,ESE,123,0.2,0.0,97,0.00,-SN,,0.00,28.0,WeatherDisplay:10.37,2013-02-22 21:46:00,
2013-02-22 16:51:00,35.5,34.7,29.90,ESE,123,1.0,1.1,97,0.00,-SN,,0.00,28.0,WeatherDisplay:10.37,2013-02-22 21:51:00,
2013-02-22 16:56:00,35.5,34.7,29.90,ESE,123,1.2,3.5,97,0.00,-SN,,0.00,25.0,WeatherDisplay:10.37,2013-02-22 21:56:00,
2013-02-22 17:01:00,35.5,34.7,29.90,ESE,123,0.1,1.1,97,0.00,-SN,,0.00,28.0,WeatherDisplay:10.37,2013-02-22 22:01:00,
2013-02-22 17:06:00,35.5,34.7,29.90,ESE,123,0.0,0.0,97,0.00,OVC,,0.00,21.0,WeatherDisplay:10.37,2013-02-22 22:06:00,
2013-02-22 17:11:00,35.6,35.1,29.90,SE,124,0.6,1.5,98,0.00,OVC,,0.00,19.0,WeatherDisplay:10.37,2013-02-22 22:11:00,
2013-02-22 17:16:00,35.6,35.1,29.90,SE,124,0.0,0.0,98,0.00,OVC,,0.00,16.0,WeatherDisplay:10.37,2013-02-22 22:16:00,
2013-02-22 17:21:00,35.8,35.3,29.90,SE,124,0.0,0.0,98,0.00,OVC,,0.00,14.0,WeatherDisplay:10.37,2013-02-22 22:21:00,
2013-02-22 17:26:00,35.8,35.3,29.90,SE,124,0.8,3.5,98,0.00,OVC,,0.00,14.0,WeatherDisplay:10.37,2013-02-22 22:26:00,
2013-02-22 17:31:00,35.8,35.3,29.90,SE,124,1.2,1.5,98,0.00,OVC,,0.00,14.0,WeatherDisplay:10.37,2013-02-22 22:31:00,
2013-02-22 17:36:00,35.9,35.4,29.90,SE,124,0.0,0.0,98,0.00,OVC,,0.00,14.0,WeatherDisplay:10.37,2013-02-22 22:36:00,
2013-02-22 17:41:00,35.8,35.3,29.90,SE,124,0.0,1.5,98,0.00,OVC,,0.00,14.0,WeatherDisplay:10.37,2013-02-22 22:41:00,
2013-02-22 17:46:00,35.8,35.3,29.90,SE,124,0.0,0.0,98,0.00,OVC,,0.00,12.0,WeatherDisplay:10.37,2013-02-22 22:46:00,
2013-02-22 17:51:00,35.8,35.3,29.90,SE,124,0.0,0.0,98,0.00,OVC,,0.00,7.0,WeatherDisplay:10.37,2013-02-22 22:51:00,
2013-02-22 17:56:00,35.9,35.4,29.90,SE,124,0.7,1.1,98,0.00,OVC,,0.00,5.0,WeatherDisplay:10.37,2013-02-22 22:56:00,
2013-02-22 18:01:00,35.9,35.4,29.91,SE,124,0.0,0.0,98,0.00,OVC,,0.00,5.0,WeatherDisplay:10.37,2013-02-22 23:01:00,
2013-02-22 18:06:00,35.9,35.4,29.91,SE,124,0.0,1.5,98,0.00,OVC,,0.00,0.0,WeatherDisplay:10.37,2013-02-22 23:06:00,
2013-02-22 18:11:00,35.9,35.4,29.91,SE,124,0.0,1.1,98,0.00,OVC,,0.00,0.0,WeatherDisplay:10.37,2013-02-22 23:11:00,
2013-02-22 18:16:00,35.9,35.4,29.91,SE,124,0.0,1.1,98,0.00,OVC,,0.00,0.0,WeatherDisplay:10.37,2013-02-22 23:16:00,
2013-02-22 18:21:00,35.9,35.4,29.91,SE,124,0.0,0.0,98,0.00,OVC,,0.00,0.0,WeatherDisplay:10.37,2013-02-22 23:21:00,
2013-02-22 18:26:00,35.9,35.4,29.91,SE,124,0.5,1.5,98,0.00,OVC,,0.00,0.0,WeatherDisplay:10.37,2013-02-22 23:26:00,
2013-02-22 18:31:00,35.9,35.4,29.91,SE,124,0.0,1.1,98,0.00,OVC,,0.00,0.0,WeatherDisplay:10.37,2013-02-22 23:31:00,
2013-02-22 18:36:00,35.9,35.4,29.91,SE,124,0.8,1.1,98,0.00,OVC,,0.00,0.0,WeatherDisplay:10.37,2013-02-22 23:36:00,
2013-02-22 18:41:00,36.0,35.7,29.91,ESE,123,0.2,3.5,99,0.00,OVC,,0.00,0.0,WeatherDisplay:10.37,2013-02-22 23:41:00,
2013-02-22 18:46:00,36.0,35.7,29.91,ESE,123,0.0,0.0,99,0.00,OVC,,0.00,0.0,WeatherDisplay:10.37,2013-02-22 23:46:00,
2013-02-22 18:51:00,36.0,35.7,29.91,ESE,123,0.0,1.1,99,0.00,OVC,,0.00,0.0,WeatherDisplay:10.37,2013-02-22 23:51:00,
2013-02-22 18:56:00,36.0,35.7,29.91,SE,124,0.2,1.1,99,0.00,OVC,,0.00,0.0,WeatherDisplay:10.37,2013-02-22 23:56:00,
2013-02-22 19:01:00,36.0,35.7,29.92,SE,124,0.1,1.5,99,0.00,OVC,,0.00,0.0,WeatherDisplay:10.37,2013-02-23 00:01:00,
2013-02-22 19:06:00,36.2,35.9,29.92,SE,124,0.0,1.1,99,0.00,OVC,,0.00,0.0,WeatherDisplay:10.37,2013-02-23 00:06:00,
2013-02-22 19:11:00,36.2,35.9,29.92,SE,124,0.0,0.0,99,0.00,OVC,,0.00,0.0,WeatherDisplay:10.37,2013-02-23 00:11:00,
2013-02-22 19:16:00,36.2,35.9,29.92,SE,124,0.0,0.0,99,0.00,OVC,,0.00,0.0,WeatherDisplay:10.37,2013-02-23 00:16:00,
2013-02-22 19:21:00,36.3,36.0,29.92,SE,124,0.7,1.5,99,0.00,OVC,,0.00,0.0,WeatherDisplay:10.37,2013-02-23 00:21:00,
2013-02-22 19:26:00,36.3,36.0,29.92,SE,124,0.3,1.1,99,0.00,OVC,,0.00,0.0,WeatherDisplay:10.37,2013-02-23 00:26:00,
2013-02-22 19:31:00,36.5,36.2,29.92,SE,126,0.5,1.1,99,0.00,OVC,,0.00,0.0,WeatherDisplay:10.37,2013-02-23 00:31:00,
2013-02-22 19:36:00,36.5,36.2,29.92,SE,126,0.7,3.5,99,0.00,OVC,,0.00,0.0,WeatherDisplay:10.37,2013-02-23 00:36:00,
2013-02-22 19:41:00,36.6,36.3,29.92,SE,126,0.0,1.1,99,0.00,OVC,,0.00,0.0,WeatherDisplay:10.37,2013-02-23 00:41:00,
2013-02-22 19:46:00,36.6,36.3,29.92,SE,126,0.9,3.5,99,0.00,OVC,,0.00,0.0,WeatherDisplay:10.37,2013-02-23 00:46:00,
2013-02-22 19:51:00,36.8,36.5,29.92,SE,126,0.0,1.5,99,0.00,OVC,,0.00,0.0,WeatherDisplay:10.37,2013-02-23 00:51:00,
2013-02-22 19:56:00,36.8,36.5,29.92,SE,126,0.0,0.0,99,0.00,OVC,,0.00,0.0,WeatherDisplay:10.37,2013-02-23 00:56:00,
2013-02-22 20:01:00,36.8,36.5,29.92,SSE,158,0.0,0.0,99,0.00,,,0.00,0.0,WeatherDisplay:10.37,2013-02-23 01:01:00,
2013-02-22 20:06:00,36.9,36.6,29.92,SSW,193,1.3,4.6,99,0.00,,,0.00,0.0,WeatherDisplay:10.37,2013-02-23 01:06:00,
2013-02-22 20:11:00,36.9,36.6,29.92,South,189,1.1,3.5,99,0.00,,,0.00,0.0,WeatherDisplay:10.37,2013-02-23 01:11:00,
2013-02-22 20:16:00,36.9,36.6,29.92,South,189,1.4,3.5,99,0.00,,,0.00,0.0,WeatherDisplay:10.37,2013-02-23 01:16:00,
2013-02-22 20:21:00,36.9,36.6,29.92,SW,222,1.5,3.5,99,0.00,,,0.00,0.0,WeatherDisplay:10.37,2013-02-23 01:21:00,
2013-02-22 20:26:00,36.9,36.6,29.92,SSW,192,0.7,1.5,99,0.00,,,0.00,0.0,WeatherDisplay:10.37,2013-02-23 01:26:00,
2013-02-22 20:31:00,37.0,36.7,29.92,SE,140,1.0,3.5,99,0.00,,,0.00,0.0,WeatherDisplay:10.37,2013-02-23 01:31:00,
2013-02-22 20:36:00,37.0,36.7,29.92,SSW,212,2.7,4.6,99,0.00,,,0.00,0.0,WeatherDisplay:10.37,2013-02-23 01:36:00,
2013-02-22 20:41:00,37.0,36.7,29.92,West,264,2.4,4.6,99,0.00,,,0.00,0.0,WeatherDisplay:10.37,2013-02-23 01:41:00,
2013-02-22 20:46:00,37.2,36.9,29.92,East,100,2.7,4.6,99,0.00,,,0.00,0.0,WeatherDisplay:10.37,2013-02-23 01:46:00,
2013-02-22 20:51:00,37.0,36.7,29.92,WSW,253,4.3,4.6,99,0.00,,,0.00,0.0,WeatherDisplay:10.37,2013-02-23 01:51:00,
2013-02-22 20:56:00,37.2,36.9,29.92,SW,229,2.2,4.6,99,0.00,,,0.00,0.0,WeatherDisplay:10.37,2013-02-23 01:56:00,
2013-02-22 21:01:00,37.0,36.7,29.92,SW,223,0.2,1.5,99,0.00,OVC,,0.00,0.0,WeatherDisplay:10.37,2013-02-23 02:01:00,
2013-02-22 21:06:00,37.0,36.7,29.92,SSW,195,1.1,3.5,99,0.00,OVC,,0.00,0.0,WeatherDisplay:10.37,2013-02-23 02:06:00,
2013-02-22 21:11:00,36.9,36.6,29.92,West,260,1.8,8.1,99,0.00,OVC,,0.00,0.0,WeatherDisplay:10.37,2013-02-23 02:11:00,
2013-02-22 21:16:00,36.9,36.6,29.92,West,261,3.5,5.8,99,0.00,OVC,,0.00,0.0,WeatherDisplay:10.37,2013-02-23 02:16:00,
2013-02-22 21:21:00,36.8,36.5,29.92,West,260,0.2,1.1,99,0.00,OVC,,0.00,0.0,WeatherDisplay:10.37,2013-02-23 02:21:00,
2013-02-22 21:26:00,36.8,36.5,29.92,WSW,256,1.1,3.5,99,0.00,OVC,,0.00,0.0,WeatherDisplay:10.37,2013-02-23 02:26:00,
2013-02-22 21:31:00,36.8,36.5,29.92,WSW,243,0.5,1.1,99,0.00,OVC,,0.00,0.0,WeatherDisplay:10.37,2013-02-23 02:31:00,
2013-02-22 21:36:00,36.6,36.3,29.92,SW,219,2.4,4.6,99,0.00,OVC,,0.00,0.0,WeatherDisplay:10.37,2013-02-23 02:36:00,
2013-02-22 21:41:00,36.6,36.3,29.92,WSW,256,0.0,0.0,99,0.00,OVC,,0.00,0.0,WeatherDisplay:10.37,2013-02-23 02:41:00,
2013-02-22 21:46:00,36.5,36.2,29.92,SSW,192,2.3,4.6,99,0.00,OVC,,0.00,0.0,WeatherDisplay:10.37,2013-02-23 02:46:00,
2013-02-22 21:51:00,36.5,36.2,29.92,WSW,240,0.0,0.0,99,0.00,OVC,,0.00,0.0,WeatherDisplay:10.37,2013-02-23 02:51:00,
2013-02-22 21:56:00,36.5,36.2,29.92,SSW,212,2.6,4.5,99,0.00,OVC,,0.00,0.0,WeatherDisplay:10.37,2013-02-23 02:56:00,
2013-02-22 22:01:00,36.3,36.0,29.92,SSW,212,1.9,3.5,99,0.00,OVC,,0.00,0.0,WeatherDisplay:10.37,2013-02-23 03:01:00,
2013-02-22 22:06:00,36.3,36.0,29.92,West,264,8.2,9.2,99,0.00,OVC,,0.00,0.0,WeatherDisplay:10.37,2013-02-23 03:06:00,
2013-02-22 22:11:00,36.2,35.9,29.92,SE,140,2.7,6.0,99,0.00,OVC,,0.00,0.0,WeatherDisplay:10.37,2013-02-23 03:11:00,
2013-02-22 22:16:00,36.2,35.9,29.92,SSW,196,1.0,1.1,99,0.00,OVC,,0.00,0.0,WeatherDisplay:10.37,2013-02-23 03:16:00,
2013-02-22 22:21:00,36.0,35.7,29.92,SSW,210,1.6,3.5,99,0.00,OVC,,0.00,0.0,WeatherDisplay:10.37,2013-02-23 03:21:00,
2013-02-22 22:26:00,35.9,35.6,29.92,SSW,210,0.6,1.1,99,0.00,OVC,,0.00,0.0,WeatherDisplay:10.37,2013-02-23 03:26:00,
2013-02-22 22:31:00,35.9,35.4,29.92,WSW,256,0.8,4.5,98,0.00,OVC,,0.00,0.0,WeatherDisplay:10.37,2013-02-23 03:31:00,
2013-02-22 22:36:00,35.8,35.3,29.92,SW,217,0.4,3.5,98,0.00,OVC,,0.00,0.0,WeatherDisplay:10.37,2013-02-23 03:36:00,
2013-02-22 22:41:00,35.8,35.3,29.92,NE,54,1.3,9.2,98,0.00,OVC,,0.00,0.0,WeatherDisplay:10.37,2013-02-23 03:41:00,
2013-02-22 22:46:00,35.6,35.1,29.92,WSW,256,3.0,5.8,98,0.00,OVC,,0.00,0.0,WeatherDisplay:10.37,2013-02-23 03:46:00,
2013-02-22 22:51:00,35.5,35.0,29.92,SSW,206,2.3,8.1,98,0.00,OVC,,0.00,0.0,WeatherDisplay:10.37,2013-02-23 03:51:00,
2013-02-22 22:56:00,35.5,35.0,29.92,West,261,3.3,10.4,98,0.00,OVC,,0.00,0.0,WeatherDisplay:10.37,2013-02-23 03:56:00,
2013-02-22 23:01:00,35.3,34.8,29.92,WSW,251,2.4,3.5,98,0.00,OVC,,0.00,0.0,WeatherDisplay:10.37,2013-02-23 04:01:00,
2013-02-22 23:06:00,35.3,34.8,29.92,WSW,250,5.7,10.4,98,0.00,OVC,,0.00,0.0,WeatherDisplay:10.37,2013-02-23 04:06:00,
2013-02-22 23:11:00,35.3,34.8,29.92,SW,234,2.1,6.0,98,0.00,OVC,,0.00,0.0,WeatherDisplay:10.37,2013-02-23 04:11:00,
2013-02-22 23:16:00,35.2,34.7,29.91,SW,230,5.7,5.8,98,0.00,OVC,,0.00,0.0,WeatherDisplay:10.37,2013-02-23 04:16:00,
2013-02-22 23:21:00,35.2,34.7,29.91,SW,232,1.9,3.0,98,0.00,OVC,,0.00,0.0,WeatherDisplay:10.37,2013-02-23 04:21:00,
2013-02-22 23:26:00,35.0,34.2,29.91,ESE,116,1.2,4.5,97,0.00,OVC,,0.00,0.0,WeatherDisplay:10.37,2013-02-23 04:26:00,
2013-02-22 23:31:00,35.0,34.2,29.91,West,268,1.6,4.6,97,0.00,OVC,,0.00,0.0,WeatherDisplay:10.37,2013-02-23 04:31:00,
2013-02-22 23:36:00,34.9,34.1,29.91,WSW,246,2.8,8.1,97,0.00,OVC,,0.00,0.0,WeatherDisplay:10.37,2013-02-23 04:36:00,
2013-02-22 23:41:00,34.9,34.1,29.91,SW,233,4.4,7.5,97,0.00,OVC,,0.00,0.0,WeatherDisplay:10.37,2013-02-23 04:41:00,
2013-02-22 23:46:00,34.9,34.1,29.91,West,260,7.5,8.1,97,0.00,OVC,,0.00,0.0,WeatherDisplay:10.37,2013-02-23 04:46:00,
2013-02-22 23:51:00,34.9,34.1,29.91,WNW,291,2.4,8.1,97,0.00,OVC,,0.00,0.0,WeatherDisplay:10.37,2013-02-23 04:51:00,
2013-02-22 23:57:00,34.9,34.1,29.91,WNW,294,2.1,8.1,97,0.00,OVC,,0.00,0.0,WeatherDisplay:10.37,2013-02-23 04:57:00,